Apj Shirin — 3EVS6 — position and weather

sailwx.info

Track history (hours):
 
Tides and Currents Weather Stations Pressure Air Temp Water Temp Dewpoint Dewpoint Depression Visibility Wind Speed Wind Dir Waves Ship Positions

Apj Shirin

Last reported at 2016-Jul-12 03:08 UTC. Time now 2016-Jul-27 09:39 UTC.
Position N 37°17' E 024°15'.
Warning: this ship's position is 15 days out of date.

Length 189 m; draft 11.2 m.

Type: Cargo ship. MMSI: 373223000.

Date/timePositionNaut miles runAvg speedWind from/ knotsBaromVisibWave heightAir tempDewpointWater temp
2016-Jul-12 03:08N 37°17' E 024°15'44610.5
2016-Jul-10 08:29N 36°23' E 015°02'1111.7
2016-Jul-10 07:32N 36°24' E 014°48'1212.0
2016-Jul-10 06:33N 36°25' E 014°34'1312.2
2016-Jul-10 05:28N 36°28' E 014°18'1112.3
2016-Jul-10 04:33N 36°31' E 014°04'1212.1
2016-Jul-10 03:33N 36°34' E 013°50'1212.1
2016-Jul-10 02:33N 36°38' E 013°35'1212.3
2016-Jul-10 01:33N 36°41' E 013°21'1312.5
2016-Jul-10 00:33N 36°45' E 013°06'1212.3
2016-Jul-09 23:33N 36°48' E 012°51'1211.8
2016-Jul-09 22:33N 36°52' E 012°37'1211.9
2016-Jul-09 21:33N 36°55' E 012°22'1211.7
2016-Jul-09 20:33N 36°58' E 012°08'1211.6
2016-Jul-09 19:34N 37°02' E 011°55'1211.9
2016-Jul-09 18:33N 37°08' E 011°42'1211.9
2016-Jul-09 17:33N 37°15' E 011°29'1211.5
2016-Jul-09 16:32N 37°20' E 011°16'1111.4
2016-Jul-09 15:33N 37°26' E 011°04'2711.5
2016-Jul-09 13:14N 37°34' E 010°32'811.6
2016-Jul-09 12:33N 37°34' E 010°22'1211.7
2016-Jul-09 11:32N 37°34' E 010°07'1212.1
2016-Jul-09 10:33N 37°32' E 009°52'1612.1
2016-Jul-09 09:12N 37°28' E 009°32'34511.3
2016-Jul-08 02:33N 36°58' E 002°20'1311.1
2016-Jul-08 01:24N 36°56' E 002°04'1111.1
2016-Jul-08 00:24N 36°53' E 001°51'7210.4
2016-Jul-07 17:27N 36°39' E 000°22'27611.5
2016-Jul-06 17:33N 35°60' W 005°16'259 9.8
2016-Jul-05 15:07N 38°09' W 009°57'811.5
2016-Jul-05 14:27N 38°17' W 009°59'2411.6
2016-Jul-05 12:24N 38°40' W 010°06'1211.8
2016-Jul-05 11:25N 38°52' W 010°05'1411.3
2016-Jul-05 10:13N 39°05' W 010°06'  
2016-Jul-02 19:20N 49°46' W 003°32'810.5
2016-Jul-02 18:33N 49°51' W 003°22'10 9.7
2016-Jul-02 17:33N 49°56' W 003°09'10 9.6
2016-Jul-02 16:33N 49°60' W 002°55'1110.1
2016-Jul-02 15:28N 50°03' W 002°39'8912.9
2016-Jul-02 08:32N 50°27' W 000°24'1010.4
2016-Jul-02 07:33N 50°29' W 000°09'10 9.5
2016-Jul-02 06:31N 50°32' E 000°06'  
Track history (hours):
 
Tides and Currents Weather Stations Pressure Air Temp Water Temp Dewpoint Dewpoint Depression Visibility Wind Speed Wind Dir Waves Ship Positions

Apj Shirin

Last reported at 2016-Jul-12 03:08 UTC. Time now 2016-Jul-27 09:39 UTC.
Position N 37°17' E 024°15'.
Warning: this ship's position is 15 days out of date.

Length 189 m; draft 11.2 m.

Type: Cargo ship. MMSI: 373223000.

Date/timePositionNaut miles runAvg speedWind from/ knotsBaromVisibWave heightAir tempDewpointWater temp
2016-Jul-12 03:08N 37°17' E 024°15'44610.5
2016-Jul-10 08:29N 36°23' E 015°02'1111.7
2016-Jul-10 07:32N 36°24' E 014°48'1212.0
2016-Jul-10 06:33N 36°25' E 014°34'1312.2
2016-Jul-10 05:28N 36°28' E 014°18'1112.3
2016-Jul-10 04:33N 36°31' E 014°04'1212.1
2016-Jul-10 03:33N 36°34' E 013°50'1212.1
2016-Jul-10 02:33N 36°38' E 013°35'1212.3
2016-Jul-10 01:33N 36°41' E 013°21'1312.5
2016-Jul-10 00:33N 36°45' E 013°06'1212.3
2016-Jul-09 23:33N 36°48' E 012°51'1211.8
2016-Jul-09 22:33N 36°52' E 012°37'1211.9
2016-Jul-09 21:33N 36°55' E 012°22'1211.7
2016-Jul-09 20:33N 36°58' E 012°08'1211.6
2016-Jul-09 19:34N 37°02' E 011°55'1211.9
2016-Jul-09 18:33N 37°08' E 011°42'1211.9
2016-Jul-09 17:33N 37°15' E 011°29'1211.5
2016-Jul-09 16:32N 37°20' E 011°16'1111.4
2016-Jul-09 15:33N 37°26' E 011°04'2711.5
2016-Jul-09 13:14N 37°34' E 010°32'811.6
2016-Jul-09 12:33N 37°34' E 010°22'1211.7
2016-Jul-09 11:32N 37°34' E 010°07'1212.1
2016-Jul-09 10:33N 37°32' E 009°52'1612.1
2016-Jul-09 09:12N 37°28' E 009°32'34511.3
2016-Jul-08 02:33N 36°58' E 002°20'1311.1
2016-Jul-08 01:24N 36°56' E 002°04'1111.1
2016-Jul-08 00:24N 36°53' E 001°51'7210.4
2016-Jul-07 17:27N 36°39' E 000°22'27611.5
2016-Jul-06 17:33N 35°60' W 005°16'259 9.8
2016-Jul-05 15:07N 38°09' W 009°57'811.5
2016-Jul-05 14:27N 38°17' W 009°59'2411.6
2016-Jul-05 12:24N 38°40' W 010°06'1211.8
2016-Jul-05 11:25N 38°52' W 010°05'1411.3
2016-Jul-05 10:13N 39°05' W 010°06'  
2016-Jul-02 19:20N 49°46' W 003°32'810.5
2016-Jul-02 18:33N 49°51' W 003°22'10 9.7
2016-Jul-02 17:33N 49°56' W 003°09'10 9.6
2016-Jul-02 16:33N 49°60' W 002°55'1110.1
2016-Jul-02 15:28N 50°03' W 002°39'8912.9
2016-Jul-02 08:32N 50°27' W 000°24'1010.4
2016-Jul-02 07:33N 50°29' W 000°09'10 9.5
2016-Jul-02 06:31N 50°32' E 000°06'  

Dump ship's entire track history